sensor_id;sensor_type;location;lat;lon;timestamp;pressure;altitude;pressure_sealevel;temperature;humidity
12247;BME280;6186;52.022;4.692;2023-06-22T00:00:32;102034.75;;;20.36;72.07
12247;BME280;6186;52.022;4.692;2023-06-22T00:02:57;102010.59;;;20.19;72.20
12247;BME280;6186;52.022;4.692;2023-06-22T00:05:22;102037.56;;;20.33;72.49
12247;BME280;6186;52.022;4.692;2023-06-22T00:07:47;102028.91;;;20.28;72.48
12247;BME280;6186;52.022;4.692;2023-06-22T00:10:14;102004.44;;;20.17;72.76
12247;BME280;6186;52.022;4.692;2023-06-22T00:12:39;102030.69;;;20.28;72.80
12247;BME280;6186;52.022;4.692;2023-06-22T00:15:05;102028.97;;;20.27;72.76
12247;BME280;6186;52.022;4.692;2023-06-22T00:17:30;102034.44;;;20.24;73.03
12247;BME280;6186;52.022;4.692;2023-06-22T00:19:55;102022.88;;;20.23;73.08
12247;BME280;6186;52.022;4.692;2023-06-22T00:22:22;102020.44;;;20.19;72.85
12247;BME280;6186;52.022;4.692;2023-06-22T00:24:47;102026.63;;;20.19;73.14
12247;BME280;6186;52.022;4.692;2023-06-22T00:27:12;102023.94;;;20.19;73.24
12247;BME280;6186;52.022;4.692;2023-06-22T00:29:37;102014.22;;;20.18;73.54
12247;BME280;6186;52.022;4.692;2023-06-22T00:32:03;102025.81;;;20.17;73.56
12247;BME280;6186;52.022;4.692;2023-06-22T00:34:28;102017.13;;;20.12;73.33
12247;BME280;6186;52.022;4.692;2023-06-22T00:36:53;102011.22;;;20.06;73.24
12247;BME280;6186;52.022;4.692;2023-06-22T00:39:19;102014.00;;;20.03;73.47
12247;BME280;6186;52.022;4.692;2023-06-22T00:41:44;102005.97;;;20.03;73.76
12247;BME280;6186;52.022;4.692;2023-06-22T00:44:09;101991.19;;;19.96;73.80
12247;BME280;6186;52.022;4.692;2023-06-22T00:46:34;102008.94;;;19.97;73.79
12247;BME280;6186;52.022;4.692;2023-06-22T00:49:00;101992.31;;;19.90;73.85
12247;BME280;6186;52.022;4.692;2023-06-22T00:51:25;101999.53;;;19.88;73.92
12247;BME280;6186;52.022;4.692;2023-06-22T00:53:51;101999.81;;;19.82;73.94
12247;BME280;6186;52.022;4.692;2023-06-22T00:56:16;101992.13;;;19.75;73.86
12247;BME280;6186;52.022;4.692;2023-06-22T00:58:42;101998.44;;;19.74;74.29
12247;BME280;6186;52.022;4.692;2023-06-22T01:01:07;102002.91;;;19.73;74.26
12247;BME280;6186;52.022;4.692;2023-06-22T01:03:33;101997.63;;;19.72;74.34
12247;BME280;6186;52.022;4.692;2023-06-22T01:06:02;102004.78;;;19.71;74.50
12247;BME280;6186;52.022;4.692;2023-06-22T01:13:45;101990.03;;;19.62;74.85
12247;BME280;6186;52.022;4.692;2023-06-22T01:16:20;102002.50;;;19.62;75.04
12247;BME280;6186;52.022;4.692;2023-06-22T01:18:51;101999.03;;;19.60;75.26
12247;BME280;6186;52.022;4.692;2023-06-22T01:21:19;101994.84;;;19.54;75.37
12247;BME280;6186;52.022;4.692;2023-06-22T01:29:33;101983.44;;;19.51;75.80
12247;BME280;6186;52.022;4.692;2023-06-22T01:32:00;101974.72;;;19.46;75.91
12247;BME280;6186;52.022;4.692;2023-06-22T01:34:28;101996.09;;;19.46;75.86
12247;BME280;6186;52.022;4.692;2023-06-22T01:36:54;101989.94;;;19.44;76.20
12247;BME280;6186;52.022;4.692;2023-06-22T01:39:21;101994.47;;;19.42;76.38
12247;BME280;6186;52.022;4.692;2023-06-22T01:41:47;101994.47;;;19.42;76.43
12247;BME280;6186;52.022;4.692;2023-06-22T01:44:13;101990.97;;;19.41;76.59
12247;BME280;6186;52.022;4.692;2023-06-22T01:46:39;101980.63;;;19.34;76.57
12247;BME280;6186;52.022;4.692;2023-06-22T01:49:06;101998.25;;;19.38;76.73
12247;BME280;6186;52.022;4.692;2023-06-22T01:51:31;101997.38;;;19.37;76.81
12247;BME280;6186;52.022;4.692;2023-06-22T01:53:57;101989.47;;;19.34;76.98
12247;BME280;6186;52.022;4.692;2023-06-22T01:56:22;101982.53;;;19.30;76.96
12247;BME280;6186;52.022;4.692;2023-06-22T02:01:43;101977.44;;;19.24;77.33
12247;BME280;6186;52.022;4.692;2023-06-22T02:04:13;101984.66;;;19.22;77.63
12247;BME280;6186;52.022;4.692;2023-06-22T02:06:45;101983.78;;;19.22;77.67
12247;BME280;6186;52.022;4.692;2023-06-22T02:09:16;101982.97;;;19.20;77.95
12247;BME280;6186;52.022;4.692;2023-06-22T02:11:44;101975.09;;;19.17;78.15
12247;BME280;6186;52.022;4.692;2023-06-22T02:14:11;101984.81;;;19.18;78.27
12247;BME280;6186;52.022;4.692;2023-06-22T02:16:38;101989.28;;;19.17;78.42
12247;BME280;6186;52.022;4.692;2023-06-22T02:19:03;101990.25;;;19.16;78.55
12247;BME280;6186;52.022;4.692;2023-06-22T02:21:29;101973.66;;;19.08;78.72
12247;BME280;6186;52.022;4.692;2023-06-22T02:23:54;101978.94;;;19.10;78.71
12247;BME280;6186;52.022;4.692;2023-06-22T02:26:20;101975.47;;;19.08;78.91
12247;BME280;6186;52.022;4.692;2023-06-22T02:28:45;101974.69;;;19.06;79.06
12247;BME280;6186;52.022;4.692;2023-06-22T02:31:10;101972.94;;;19.05;79.10
12247;BME280;6186;52.022;4.692;2023-06-22T02:33:36;101970.34;;;19.03;79.29
12247;BME280;6186;52.022;4.692;2023-06-22T02:36:01;101969.53;;;19.01;79.41
12247;BME280;6186;52.022;4.692;2023-06-22T02:38:26;101968.88;;;18.96;79.54
12247;BME280;6186;52.022;4.692;2023-06-22T02:40:51;101967.13;;;18.95;79.68
12247;BME280;6186;52.022;4.692;2023-06-22T02:43:17;101957.56;;;18.90;79.98
12247;BME280;6186;52.022;4.692;2023-06-22T02:45:42;101959.19;;;18.94;80.15
12247;BME280;6186;52.022;4.692;2023-06-22T02:48:07;101959.34;;;18.89;80.31
12247;BME280;6186;52.022;4.692;2023-06-22T02:50:32;101955.97;;;18.86;80.38
12247;BME280;6186;52.022;4.692;2023-06-22T02:52:58;101974.47;;;18.90;80.66
12247;BME280;6186;52.022;4.692;2023-06-22T02:55:23;101976.31;;;18.88;80.82
12247;BME280;6186;52.022;4.692;2023-06-22T02:57:49;101975.38;;;18.89;80.88
12247;BME280;6186;52.022;4.692;2023-06-22T03:00:14;101969.28;;;18.86;81.08
12247;BME280;6186;52.022;4.692;2023-06-22T03:02:39;101977.13;;;18.90;81.45
12247;BME280;6186;52.022;4.692;2023-06-22T03:05:05;101976.41;;;18.85;81.34
12247;BME280;6186;52.022;4.692;2023-06-22T03:07:30;101976.31;;;18.88;81.52
12247;BME280;6186;52.022;4.692;2023-06-22T03:09:55;101980.78;;;18.88;81.66
12247;BME280;6186;52.022;4.692;2023-06-22T03:12:20;101989.66;;;18.88;81.94
12247;BME280;6186;52.022;4.692;2023-06-22T03:14:46;101987.00;;;18.88;82.28
12247;BME280;6186;52.022;4.692;2023-06-22T03:17:11;101977.19;;;18.89;82.30
12247;BME280;6186;52.022;4.692;2023-06-22T03:19:36;101960.16;;;18.91;82.43
12247;BME280;6186;52.022;4.692;2023-06-22T03:22:01;101962.84;;;18.91;82.54
12247;BME280;6186;52.022;4.692;2023-06-22T03:24:27;101955.84;;;18.89;82.53
12247;BME280;6186;52.022;4.692;2023-06-22T03:26:52;101949.69;;;18.87;82.55
12247;BME280;6186;52.022;4.692;2023-06-22T03:29:17;101948.81;;;18.86;82.79
12247;BME280;6186;52.022;4.692;2023-06-22T03:31:42;101936.06;;;18.72;82.85
12247;BME280;6186;52.022;4.692;2023-06-22T03:34:08;101955.06;;;18.85;83.10
12247;BME280;6186;52.022;4.692;2023-06-22T03:36:33;101955.06;;;18.85;83.38
12247;BME280;6186;52.022;4.692;2023-06-22T03:38:58;101951.50;;;18.86;83.60
12247;BME280;6186;52.022;4.692;2023-06-22T03:41:23;101939.22;;;18.82;83.79
12247;BME280;6186;52.022;4.692;2023-06-22T03:43:48;101947.03;;;18.87;83.79
12247;BME280;6186;52.022;4.692;2023-06-22T03:46:14;101939.94;;;18.86;83.79
12247;BME280;6186;52.022;4.692;2023-06-22T03:48:39;101939.06;;;18.85;84.04
12247;BME280;6186;52.022;4.692;2023-06-22T03:51:04;101938.34;;;18.82;84.05
12247;BME280;6186;52.022;4.692;2023-06-22T03:53:29;101929.66;;;18.76;84.31
12247;BME280;6186;52.022;4.692;2023-06-22T03:55:55;101938.34;;;18.82;84.50
12247;BME280;6186;52.022;4.692;2023-06-22T03:58:21;101937.50;;;18.81;84.63
12247;BME280;6186;52.022;4.692;2023-06-22T04:00:50;101938.34;;;18.82;84.92
12247;BME280;6186;52.022;4.692;2023-06-22T04:03:16;101927.81;;;18.78;85.04
12247;BME280;6186;52.022;4.692;2023-06-22T04:05:41;101941.94;;;18.81;85.26
12247;BME280;6186;52.022;4.692;2023-06-22T04:08:07;101939.22;;;18.82;85.53
12247;BME280;6186;52.022;4.692;2023-06-22T04:10:33;101933.88;;;18.82;85.70
12247;BME280;6186;52.022;4.692;2023-06-22T04:12:58;101929.47;;;18.81;85.78
12247;BME280;6186;52.022;4.692;2023-06-22T04:15:23;101933.00;;;18.82;85.97
12247;BME280;6186;52.022;4.692;2023-06-22T04:17:48;101926.75;;;18.83;86.19
12247;BME280;6186;52.022;4.692;2023-06-22T04:20:14;101928.47;;;18.84;86.36
12247;BME280;6186;52.022;4.692;2023-06-22T04:22:39;101927.66;;;18.82;86.70
12247;BME280;6186;52.022;4.692;2023-06-22T04:25:05;101927.56;;;18.85;86.83
12247;BME280;6186;52.022;4.692;2023-06-22T04:27:31;101929.28;;;18.86;87.07
12247;BME280;6186;52.022;4.692;2023-06-22T04:29:57;101927.66;;;18.82;87.22
12247;BME280;6186;52.022;4.692;2023-06-22T04:32:22;101938.16;;;18.86;87.36
12247;BME280;6186;52.022;4.692;2023-06-22T04:34:47;101935.41;;;18.88;87.59
12247;BME280;6186;52.022;4.692;2023-06-22T04:37:13;101938.88;;;18.90;87.90
12247;BME280;6186;52.022;4.692;2023-06-22T04:39:38;101942.44;;;18.90;88.22
12247;BME280;6186;52.022;4.692;2023-06-22T04:42:03;101947.63;;;18.93;88.42
12247;BME280;6186;52.022;4.692;2023-06-22T04:44:29;101942.22;;;18.95;88.73
12247;BME280;6186;52.022;4.692;2023-06-22T04:46:55;101942.13;;;18.98;88.93
12247;BME280;6186;52.022;4.692;2023-06-22T04:49:21;101944.63;;;19.01;89.32
12247;BME280;6186;52.022;4.692;2023-06-22T04:51:46;101951.59;;;19.05;89.55
12247;BME280;6186;52.022;4.692;2023-06-22T04:54:12;101951.44;;;19.08;89.71
12247;BME280;6186;52.022;4.692;2023-06-22T04:56:37;101940.72;;;19.09;89.89
12247;BME280;6186;52.022;4.692;2023-06-22T04:59:02;101932.91;;;19.05;90.08
12247;BME280;6186;52.022;4.692;2023-06-22T05:01:27;101945.91;;;19.12;90.23
12247;BME280;6186;52.022;4.692;2023-06-22T05:03:53;101949.31;;;19.16;90.54
12247;BME280;6186;52.022;4.692;2023-06-22T05:06:18;101943.00;;;19.18;90.75
12247;BME280;6186;52.022;4.692;2023-06-22T05:08:43;101940.25;;;19.20;90.96
12247;BME280;6186;52.022;4.692;2023-06-22T05:11:08;101938.53;;;19.19;91.25
12247;BME280;6186;52.022;4.692;2023-06-22T05:13:34;101944.38;;;19.27;91.41
12247;BME280;6186;52.022;4.692;2023-06-22T05:15:59;101951.41;;;19.29;91.75
12247;BME280;6186;52.022;4.692;2023-06-22T05:18:24;101950.28;;;19.35;92.07
12247;BME280;6186;52.022;4.692;2023-06-22T05:20:49;101943.88;;;19.39;92.38
12247;BME280;6186;52.022;4.692;2023-06-22T05:23:15;101947.16;;;19.45;92.57
12247;BME280;6186;52.022;4.692;2023-06-22T05:25:40;101942.66;;;19.46;93.02
12247;BME280;6186;52.022;4.692;2023-06-22T05:28:05;101942.25;;;19.55;93.18
12247;BME280;6186;52.022;4.692;2023-06-22T05:30:30;101942.00;;;19.61;93.61
12247;BME280;6186;52.022;4.692;2023-06-22T05:32:55;101946.16;;;19.68;93.93
12247;BME280;6186;52.022;4.692;2023-06-22T05:35:21;101951.06;;;19.77;94.34
12247;BME280;6186;52.022;4.692;2023-06-22T05:37:46;101939.22;;;19.83;94.48
12247;BME280;6186;52.022;4.692;2023-06-22T05:40:12;101936.19;;;19.90;94.87
12247;BME280;6186;52.022;4.692;2023-06-22T05:42:37;101935.13;;;19.94;94.80
12247;BME280;6186;52.022;4.692;2023-06-22T05:45:03;101936.72;;;19.98;94.91
12247;BME280;6186;52.022;4.692;2023-06-22T05:47:28;101940.03;;;20.03;95.31
12247;BME280;6186;52.022;4.692;2023-06-22T05:49:53;101922.56;;;19.96;95.49
12247;BME280;6186;52.022;4.692;2023-06-22T05:52:18;101932.66;;;20.08;95.81
12247;BME280;6186;52.022;4.692;2023-06-22T05:54:44;101929.69;;;20.14;95.96
12247;BME280;6186;52.022;4.692;2023-06-22T05:57:09;101942.53;;;20.26;96.29
12247;BME280;6186;52.022;4.692;2023-06-22T05:59:34;101940.50;;;20.31;96.41
12247;BME280;6186;52.022;4.692;2023-06-22T06:01:59;101944.84;;;20.34;96.53
12247;BME280;6186;52.022;4.692;2023-06-22T06:04:25;101943.78;;;20.36;96.63
12247;BME280;6186;52.022;4.692;2023-06-22T06:06:50;101938.16;;;20.42;97.13
12247;BME280;6186;52.022;4.692;2023-06-22T06:09:15;101943.13;;;20.50;97.60
12247;BME280;6186;52.022;4.692;2023-06-22T06:11:40;101929.75;;;20.50;97.66
12247;BME280;6186;52.022;4.692;2023-06-22T06:14:06;101940.03;;;20.59;98.02
12247;BME280;6186;52.022;4.692;2023-06-22T06:16:31;101933.66;;;20.61;97.93
12247;BME280;6186;52.022;4.692;2023-06-22T06:18:57;101939.78;;;20.63;98.17
12247;BME280;6186;52.022;4.692;2023-06-22T06:21:22;101934.44;;;20.63;98.10
12247;BME280;6186;52.022;4.692;2023-06-22T06:23:47;101932.47;;;20.67;98.84
12247;BME280;6186;52.022;4.692;2023-06-22T06:26:12;101934.75;;;20.75;99.29
12247;BME280;6186;52.022;4.692;2023-06-22T06:28:38;101936.34;;;20.79;99.31
12247;BME280;6186;52.022;4.692;2023-06-22T06:31:03;101936.25;;;20.80;99.41
12247;BME280;6186;52.022;4.692;2023-06-22T06:33:28;101932.75;;;20.80;99.50
12247;BME280;6186;52.022;4.692;2023-06-22T06:35:53;101929.03;;;20.82;99.80
12247;BME280;6186;52.022;4.692;2023-06-22T06:38:19;101929.81;;;20.84;100.00
12247;BME280;6186;52.022;4.692;2023-06-22T06:40:44;101916.22;;;20.89;100.00
12247;BME280;6186;52.022;4.692;2023-06-22T06:43:09;101911.41;;;20.95;100.00
12247;BME280;6186;52.022;4.692;2023-06-22T06:45:34;101922.53;;;21.05;100.00
12247;BME280;6186;52.022;4.692;2023-06-22T06:48:00;101912.47;;;21.10;100.00
12247;BME280;6186;52.022;4.692;2023-06-22T06:50:25;101911.22;;;21.17;100.00
12247;BME280;6186;52.022;4.692;2023-06-22T06:52:51;101912.69;;;21.22;100.00
12247;BME280;6186;52.022;4.692;2023-06-22T06:55:16;101916.78;;;21.29;100.00
12247;BME280;6186;52.022;4.692;2023-06-22T06:57:42;101907.56;;;21.35;100.00
12247;BME280;6186;52.022;4.692;2023-06-22T07:00:09;101918.03;;;21.39;100.00
12247;BME280;6186;52.022;4.692;2023-06-22T07:02:35;101917.81;;;21.44;100.00
12247;BME280;6186;52.022;4.692;2023-06-22T07:05:01;101903.53;;;21.43;100.00
12247;BME280;6186;52.022;4.692;2023-06-22T07:07:26;101898.69;;;21.50;100.00
12247;BME280;6186;52.022;4.692;2023-06-22T07:09:51;101900.97;;;21.58;100.00
12247;BME280;6186;52.022;4.692;2023-06-22T07:12:16;101902.28;;;21.66;100.00
12247;BME280;6186;52.022;4.692;2023-06-22T07:14:42;101902.44;;;21.80;100.00
12247;BME280;6186;52.022;4.692;2023-06-22T07:17:07;101905.41;;;21.91;100.00
12247;BME280;6186;52.022;4.692;2023-06-22T07:19:32;101896.75;;;22.02;100.00
12247;BME280;6186;52.022;4.692;2023-06-22T07:21:58;101889.84;;;22.13;100.00
12247;BME280;6186;52.022;4.692;2023-06-22T07:24:24;101895.75;;;22.20;100.00
12247;BME280;6186;52.022;4.692;2023-06-22T07:26:50;101885.50;;;22.26;100.00
12247;BME280;6186;52.022;4.692;2023-06-22T07:29:19;101883.06;;;22.37;100.00
12247;BME280;6186;52.022;4.692;2023-06-22T07:31:45;101880.63;;;22.48;100.00
12247;BME280;6186;52.022;4.692;2023-06-22T07:34:10;101878.38;;;22.72;100.00
12247;BME280;6186;52.022;4.692;2023-06-22T07:36:35;101881.97;;;22.87;100.00
12247;BME280;6186;52.022;4.692;2023-06-22T07:39:02;101887.84;;;22.93;100.00
12247;BME280;6186;52.022;4.692;2023-06-22T07:41:28;101885.53;;;23.01;100.00
12247;BME280;6186;52.022;4.692;2023-06-22T07:43:53;101885.78;;;23.12;100.00
12247;BME280;6186;52.022;4.692;2023-06-22T07:46:18;101878.97;;;23.21;100.00
12247;BME280;6186;52.022;4.692;2023-06-22T07:48:44;101867.63;;;23.31;100.00
12247;BME280;6186;52.022;4.692;2023-06-22T07:51:09;101868.75;;;23.42;100.00
12247;BME280;6186;52.022;4.692;2023-06-22T07:53:34;101874.63;;;23.48;100.00
12247;BME280;6186;52.022;4.692;2023-06-22T07:55:59;101870.59;;;23.55;100.00
12247;BME280;6186;52.022;4.692;2023-06-22T07:58:24;101866.94;;;23.70;100.00
12247;BME280;6186;52.022;4.692;2023-06-22T08:00:50;101870.94;;;23.77;100.00
12247;BME280;6186;52.022;4.692;2023-06-22T08:03:15;101862.50;;;23.83;100.00
12247;BME280;6186;52.022;4.692;2023-06-22T08:05:41;101857.50;;;23.91;100.00
12247;BME280;6186;52.022;4.692;2023-06-22T08:08:06;101854.91;;;24.04;100.00
12247;BME280;6186;52.022;4.692;2023-06-22T08:10:31;101852.28;;;24.16;100.00
12247;BME280;6186;52.022;4.692;2023-06-22T08:12:56;101850.91;;;24.23;100.00
12247;BME280;6186;52.022;4.692;2023-06-22T08:15:21;101850.63;;;24.28;100.00
12247;BME280;6186;52.022;4.692;2023-06-22T08:17:47;101846.97;;;24.42;100.00
12247;BME280;6186;52.022;4.692;2023-06-22T08:20:12;101845.19;;;24.55;100.00
12247;BME280;6186;52.022;4.692;2023-06-22T08:22:38;101843.88;;;24.74;100.00
12247;BME280;6186;52.022;4.692;2023-06-22T08:25:03;101831.41;;;24.86;100.00
12247;BME280;6186;52.022;4.692;2023-06-22T08:27:32;101851.91;;;25.01;100.00
12247;BME280;6186;52.022;4.692;2023-06-22T08:30:00;101842.41;;;25.08;100.00
12247;BME280;6186;52.022;4.692;2023-06-22T08:32:27;101852.78;;;25.14;100.00
12247;BME280;6186;52.022;4.692;2023-06-22T08:34:56;101838.66;;;25.23;100.00
12247;BME280;6186;52.022;4.692;2023-06-22T08:37:22;101834.22;;;25.35;100.00
12247;BME280;6186;52.022;4.692;2023-06-22T08:39:48;101831.03;;;25.42;100.00
12247;BME280;6186;52.022;4.692;2023-06-22T08:42:13;101836.50;;;25.53;100.00
12247;BME280;6186;52.022;4.692;2023-06-22T08:44:38;101831.09;;;25.66;100.00
12247;BME280;6186;52.022;4.692;2023-06-22T08:47:04;101823.41;;;25.72;100.00
12247;BME280;6186;52.022;4.692;2023-06-22T08:49:29;101824.91;;;25.76;100.00
12247;BME280;6186;52.022;4.692;2023-06-22T08:51:54;101820.22;;;25.91;100.00
12247;BME280;6186;52.022;4.692;2023-06-22T08:54:19;101819.88;;;26.08;100.00
12247;BME280;6186;52.022;4.692;2023-06-22T08:56:45;101828.69;;;26.23;100.00
12247;BME280;6186;52.022;4.692;2023-06-22T08:59:10;101825.91;;;26.35;100.00
12247;BME280;6186;52.022;4.692;2023-06-22T09:01:35;101820.97;;;26.29;100.00
12247;BME280;6186;52.022;4.692;2023-06-22T09:04:00;101822.44;;;26.22;100.00
12247;BME280;6186;52.022;4.692;2023-06-22T09:06:26;101818.78;;;26.11;100.00
12247;BME280;6186;52.022;4.692;2023-06-22T09:08:51;101822.50;;;26.10;100.00
12247;BME280;6186;52.022;4.692;2023-06-22T09:11:16;101813.28;;;26.12;100.00
12247;BME280;6186;52.022;4.692;2023-06-22T09:13:41;101807.38;;;26.07;100.00
12247;BME280;6186;52.022;4.692;2023-06-22T09:16:06;101811.69;;;26.10;100.00
12247;BME280;6186;52.022;4.692;2023-06-22T09:18:33;101816.22;;;26.09;100.00
12247;BME280;6186;52.022;4.692;2023-06-22T09:20:58;101804.69;;;26.07;100.00
12247;BME280;6186;52.022;4.692;2023-06-22T09:23:23;101804.22;;;26.13;100.00
12247;BME280;6186;52.022;4.692;2023-06-22T09:25:49;101812.94;;;26.17;100.00
12247;BME280;6186;52.022;4.692;2023-06-22T09:28:14;101805.31;;;26.11;100.00
12247;BME280;6186;52.022;4.692;2023-06-22T09:30:40;101809.50;;;26.15;100.00
12247;BME280;6186;52.022;4.692;2023-06-22T09:33:05;101809.38;;;26.16;100.00
12247;BME280;6186;52.022;4.692;2023-06-22T09:35:30;101806.81;;;26.15;100.00
12247;BME280;6186;52.022;4.692;2023-06-22T09:37:55;101810.69;;;26.11;100.00
12247;BME280;6186;52.022;4.692;2023-06-22T09:40:21;101805.53;;;26.08;100.00
12247;BME280;6186;52.022;4.692;2023-06-22T09:42:46;101805.84;;;26.03;100.00
12247;BME280;6186;52.022;4.692;2023-06-22T09:45:11;101800.31;;;26.04;100.00
12247;BME280;6186;52.022;4.692;2023-06-22T09:47:36;101796.13;;;26.00;100.00
12247;BME280;6186;52.022;4.692;2023-06-22T09:50:02;101796.38;;;25.97;100.00
12247;BME280;6186;52.022;4.692;2023-06-22T09:52:27;101796.81;;;25.91;100.00
12247;BME280;6186;52.022;4.692;2023-06-22T09:54:52;101793.38;;;25.89;100.00
12247;BME280;6186;52.022;4.692;2023-06-22T09:57:18;101792.72;;;25.86;100.00
12247;BME280;6186;52.022;4.692;2023-06-22T09:59:43;101785.72;;;25.83;100.00
12247;BME280;6186;52.022;4.692;2023-06-22T10:02:08;101791.28;;;25.93;100.00
12247;BME280;6186;52.022;4.692;2023-06-22T10:04:34;101789.59;;;25.92;100.00
12247;BME280;6186;52.022;4.692;2023-06-22T10:07:00;101787.75;;;25.92;100.00
12247;BME280;6186;52.022;4.692;2023-06-22T10:09:25;101794.13;;;25.91;100.00
12247;BME280;6186;52.022;4.692;2023-06-22T10:11:50;101798.63;;;25.91;100.00
12247;BME280;6186;52.022;4.692;2023-06-22T10:14:15;101789.59;;;25.92;100.00
12247;BME280;6186;52.022;4.692;2023-06-22T10:16:41;101793.78;;;25.96;100.00
12247;BME280;6186;52.022;4.692;2023-06-22T10:19:06;101789.25;;;25.96;100.00
12247;BME280;6186;52.022;4.692;2023-06-22T10:21:32;101781.38;;;25.93;100.00
12247;BME280;6186;52.022;4.692;2023-06-22T10:23:57;101792.47;;;26.01;100.00
12247;BME280;6186;52.022;4.692;2023-06-22T10:26:22;101794.00;;;26.05;100.00
12247;BME280;6186;52.022;4.692;2023-06-22T10:28:48;101789.66;;;26.03;100.00
12247;BME280;6186;52.022;4.692;2023-06-22T10:31:13;101794.41;;;25.99;100.00
12247;BME280;6186;52.022;4.692;2023-06-22T10:33:38;101788.72;;;25.91;100.00
12247;BME280;6186;52.022;4.692;2023-06-22T10:36:04;101795.09;;;25.90;100.00
12247;BME280;6186;52.022;4.692;2023-06-22T10:38:29;101793.47;;;25.88;100.00
12247;BME280;6186;52.022;4.692;2023-06-22T10:40:54;101805.91;;;25.90;100.00
12247;BME280;6186;52.022;4.692;2023-06-22T10:43:19;101804.41;;;25.86;100.00
12247;BME280;6186;52.022;4.692;2023-06-22T10:45:45;101800.53;;;25.78;100.00
12247;BME280;6186;52.022;4.692;2023-06-22T10:48:10;101802.81;;;25.71;100.00
12247;BME280;6186;52.022;4.692;2023-06-22T10:50:35;101801.31;;;25.67;100.00
12247;BME280;6186;52.022;4.692;2023-06-22T10:53:00;101805.09;;;25.65;100.00
12247;BME280;6186;52.022;4.692;2023-06-22T10:55:26;101801.63;;;25.63;100.00
12247;BME280;6186;52.022;4.692;2023-06-22T10:57:51;101808.03;;;25.62;100.00
12247;BME280;6186;52.022;4.692;2023-06-22T11:00:16;101805.00;;;25.54;100.00
12247;BME280;6186;52.022;4.692;2023-06-22T11:02:42;101814.94;;;25.53;100.00
12247;BME280;6186;52.022;4.692;2023-06-22T11:05:07;101815.78;;;25.54;100.00
12247;BME280;6186;52.022;4.692;2023-06-22T11:07:33;101802.88;;;25.46;100.00
12247;BME280;6186;52.022;4.692;2023-06-22T11:09:58;101807.06;;;25.50;100.00
12247;BME280;6186;52.022;4.692;2023-06-22T11:12:23;101808.06;;;25.49;100.00
12247;BME280;6186;52.022;4.692;2023-06-22T11:14:48;101811.81;;;25.47;100.00
12247;BME280;6186;52.022;4.692;2023-06-22T11:17:14;101805.03;;;25.41;100.00
12247;BME280;6186;52.022;4.692;2023-06-22T11:19:39;101807.16;;;25.36;100.00
12247;BME280;6186;52.022;4.692;2023-06-22T11:22:04;101803.81;;;25.33;100.00
12247;BME280;6186;52.022;4.692;2023-06-22T11:24:30;101804.06;;;25.30;100.00
12247;BME280;6186;52.022;4.692;2023-06-22T11:26:55;101800.47;;;25.29;100.00
12247;BME280;6186;52.022;4.692;2023-06-22T11:29:20;101803.19;;;25.29;100.00
12247;BME280;6186;52.022;4.692;2023-06-22T11:31:45;101798.84;;;25.27;100.00
12247;BME280;6186;52.022;4.692;2023-06-22T11:34:11;101794.56;;;25.24;100.00
12247;BME280;6186;52.022;4.692;2023-06-22T11:36:36;101793.69;;;25.24;100.00
12247;BME280;6186;52.022;4.692;2023-06-22T11:39:02;101781.09;;;25.24;100.00
12247;BME280;6186;52.022;4.692;2023-06-22T11:41:27;101773.19;;;25.21;100.00
12247;BME280;6186;52.022;4.692;2023-06-22T11:43:52;101772.25;;;25.22;100.00
12247;BME280;6186;52.022;4.692;2023-06-22T11:46:18;101768.03;;;25.18;100.00
12247;BME280;6186;52.022;4.692;2023-06-22T11:48:43;101773.00;;;25.24;100.00
12247;BME280;6186;52.022;4.692;2023-06-22T11:51:08;101762.22;;;25.24;100.00
12247;BME280;6186;52.022;4.692;2023-06-22T11:53:34;101752.50;;;25.22;100.00
12247;BME280;6186;52.022;4.692;2023-06-22T11:56:00;101755.31;;;25.20;100.00
12247;BME280;6186;52.022;4.692;2023-06-22T11:58:26;101750.16;;;25.17;100.00
12247;BME280;6186;52.022;4.692;2023-06-22T12:00:51;101741.63;;;25.10;100.00
12247;BME280;6186;52.022;4.692;2023-06-22T12:03:16;101740.56;;;25.13;100.00
12247;BME280;6186;52.022;4.692;2023-06-22T12:05:41;101751.44;;;25.11;100.00
12247;BME280;6186;52.022;4.692;2023-06-22T12:08:07;101736.38;;;25.09;100.00
12247;BME280;6186;52.022;4.692;2023-06-22T12:10:32;101735.72;;;25.05;100.00
12247;BME280;6186;52.022;4.692;2023-06-22T12:12:57;101740.44;;;25.02;100.00
12247;BME280;6186;52.022;4.692;2023-06-22T12:15:23;101737.03;;;25.00;100.00
12247;BME280;6186;52.022;4.692;2023-06-22T12:17:48;101736.28;;;24.98;100.00
12247;BME280;6186;52.022;4.692;2023-06-22T12:20:14;101737.97;;;24.99;100.00
12247;BME280;6186;52.022;4.692;2023-06-22T12:22:39;101734.41;;;24.98;100.00
12247;BME280;6186;52.022;4.692;2023-06-22T12:25:05;101733.88;;;24.93;100.00
12247;BME280;6186;52.022;4.692;2023-06-22T12:27:31;101729.81;;;24.88;100.00
12247;BME280;6186;52.022;4.692;2023-06-22T12:29:56;101726.47;;;24.84;100.00
12247;BME280;6186;52.022;4.692;2023-06-22T12:32:21;101728.28;;;24.84;100.00
12247;BME280;6186;52.022;4.692;2023-06-22T12:34:47;101721.28;;;24.81;100.00
12247;BME280;6186;52.022;4.692;2023-06-22T12:37:12;101721.50;;;24.78;100.00
12247;BME280;6186;52.022;4.692;2023-06-22T12:39:41;101724.31;;;24.77;100.00
12247;BME280;6186;52.022;4.692;2023-06-22T12:42:07;101707.69;;;24.70;100.00
12247;BME280;6186;52.022;4.692;2023-06-22T12:44:32;101720.63;;;24.78;100.00
12247;BME280;6186;52.022;4.692;2023-06-22T12:46:58;101720.88;;;24.75;100.00
12247;BME280;6186;52.022;4.692;2023-06-22T12:49:23;101721.38;;;24.80;100.00
12247;BME280;6186;52.022;4.692;2023-06-22T12:51:48;101718.59;;;24.81;100.00
12247;BME280;6186;52.022;4.692;2023-06-22T12:54:13;101723.88;;;24.83;100.00
12247;BME280;6186;52.022;4.692;2023-06-22T12:56:39;101723.03;;;24.82;100.00
12247;BME280;6186;52.022;4.692;2023-06-22T12:59:04;101712.03;;;24.73;100.00